Time,TemperatureF,DewpointF,PressureIn,WindDirection,WindDirectionDegrees,WindSpeedMPH,WindSpeedGustMPH,Humidity,HourlyPrecipIn,Conditions,Clouds,dailyrainin,SoftwareType,DateUTC
2013-05-08 00:01:00,56.2,50.4,30.11,South,180,1.1,1.6,81,0.00,,,0.00,WUHU216HW,2013-05-08 07:01:00,
2013-05-08 00:06:00,56.2,50.4,30.11,South,180,1.1,1.6,81,0.00,,,0.00,WUHU216HW,2013-05-08 07:06:00,
2013-05-08 00:11:00,56.2,50.4,30.11,SSW,203,0.9,1.6,81,0.00,,,0.00,WUHU216HW,2013-05-08 07:11:00,
2013-05-08 00:16:00,56.2,50.4,30.11,SW,225,0.0,1.3,81,0.00,,,0.00,WUHU216HW,2013-05-08 07:16:00,
2013-05-08 00:21:00,56.0,50.2,30.11,SW,225,0.0,0.7,81,0.00,,,0.00,WUHU216HW,2013-05-08 07:21:00,
2013-05-08 00:26:00,55.8,50.1,30.11,SW,225,0.2,0.4,81,0.00,,,0.00,WUHU216HW,2013-05-08 07:26:00,
2013-05-08 00:31:00,55.8,50.1,30.11,SW,225,0.0,0.4,81,0.00,,,0.00,WUHU216HW,2013-05-08 07:31:00,
2013-05-08 00:36:00,55.6,50.1,30.11,SW,225,0.0,0.4,82,0.00,,,0.00,WUHU216HW,2013-05-08 07:36:00,
2013-05-08 00:41:00,55.6,50.1,30.11,SW,225,0.0,0.0,82,0.00,,,0.00,WUHU216HW,2013-05-08 07:41:00,
2013-05-08 00:46:00,55.6,50.1,30.11,SSE,158,0.2,0.2,82,0.00,,,0.00,WUHU216HW,2013-05-08 07:46:00,
2013-05-08 00:51:00,55.4,50.0,30.12,SSE,158,0.0,0.2,82,0.00,,,0.00,WUHU216HW,2013-05-08 07:51:00,
2013-05-08 00:56:00,55.4,50.0,30.11,SSE,158,0.0,0.0,82,0.00,,,0.00,WUHU216HW,2013-05-08 07:56:00,
2013-05-08 01:01:00,55.6,50.1,30.11,SSE,158,0.0,0.0,82,0.00,,,0.00,WUHU216HW,2013-05-08 08:01:00,
2013-05-08 01:06:00,55.8,50.3,30.11,SSE,158,0.0,0.0,82,0.00,,,0.00,WUHU216HW,2013-05-08 08:06:00,
2013-05-08 01:11:00,55.8,50.3,30.11,SSE,158,0.0,0.0,82,0.00,,,0.00,WUHU216HW,2013-05-08 08:11:00,
2013-05-08 01:16:00,55.8,50.3,30.11,SSE,158,0.0,0.0,82,0.00,,,0.00,WUHU216HW,2013-05-08 08:16:00,
2013-05-08 01:21:00,55.6,50.1,30.11,SSE,158,0.0,0.0,82,0.00,,,0.00,WUHU216HW,2013-05-08 08:21:00,
2013-05-08 01:26:00,55.6,50.1,30.11,SSE,158,0.0,0.0,82,0.00,,,0.00,WUHU216HW,2013-05-08 08:26:00,
2013-05-08 01:31:00,55.6,50.1,30.11,SSE,158,0.0,0.0,82,0.00,,,0.00,WUHU216HW,2013-05-08 08:31:00,
2013-05-08 01:36:00,55.6,50.1,30.10,SSE,158,0.0,0.0,82,0.00,,,0.00,WUHU216HW,2013-05-08 08:36:00,
2013-05-08 01:41:00,55.6,50.1,30.11,SSE,158,0.0,0.0,82,0.00,,,0.00,WUHU216HW,2013-05-08 08:41:00,
2013-05-08 01:46:00,55.6,50.1,30.10,SSE,158,0.0,0.0,82,0.00,,,0.00,WUHU216HW,2013-05-08 08:46:00,
2013-05-08 01:51:00,55.6,50.1,30.10,SSE,158,0.0,0.0,82,0.00,,,0.00,WUHU216HW,2013-05-08 08:51:00,
2013-05-08 01:56:00,55.6,50.1,30.10,SSE,158,0.0,0.0,82,0.00,,,0.00,WUHU216HW,2013-05-08 08:56:00,
2013-05-08 02:01:00,55.6,50.1,30.10,SSE,158,0.4,0.7,82,0.00,,,0.00,WUHU216HW,2013-05-08 09:01:00,
2013-05-08 02:06:00,55.6,50.5,30.10,SSE,158,0.4,0.7,83,0.00,,,0.00,WUHU216HW,2013-05-08 09:06:00,
2013-05-08 02:10:00,55.6,50.5,30.10,SSE,158,0.2,0.4,83,0.00,,,0.00,WUHU216HW,2013-05-08 09:10:00,
2013-05-08 02:15:00,55.4,50.3,30.10,SSE,158,0.2,0.4,83,0.00,,,0.00,WUHU216HW,2013-05-08 09:15:00,
2013-05-08 02:20:00,55.4,50.3,30.10,SSE,158,0.2,0.2,83,0.00,,,0.00,WUHU216HW,2013-05-08 09:20:00,
2013-05-08 02:25:00,55.4,50.3,30.10,SSE,158,0.4,0.9,83,0.00,,,0.00,WUHU216HW,2013-05-08 09:25:00,
2013-05-08 02:30:00,55.4,50.0,30.10,SSE,158,1.1,1.3,82,0.00,,,0.00,WUHU216HW,2013-05-08 09:30:00,
2013-05-08 02:35:00,55.3,50.1,30.10,South,180,0.9,1.3,83,0.00,,,0.00,WUHU216HW,2013-05-08 09:35:00,
2013-05-08 02:40:00,55.3,49.8,30.10,SSE,158,1.1,1.1,82,0.00,,,0.00,WUHU216HW,2013-05-08 09:40:00,
2013-05-08 02:45:00,55.3,49.8,30.10,SE,135,0.0,1.1,82,0.00,,,0.00,WUHU216HW,2013-05-08 09:45:00,
2013-05-08 02:50:00,55.1,50.0,30.10,South,180,1.1,1.1,83,0.00,,,0.00,WUHU216HW,2013-05-08 09:50:00,
2013-05-08 02:55:00,55.1,50.0,30.10,South,180,0.7,1.3,83,0.00,,,0.00,WUHU216HW,2013-05-08 09:55:00,
2013-05-08 03:00:00,55.1,49.7,30.10,ESE,113,0.7,1.3,82,0.00,,,0.00,WUHU216HW,2013-05-08 10:00:00,
2013-05-08 03:05:00,54.9,49.5,30.10,East,90,0.4,0.7,82,0.00,,,0.00,WUHU216HW,2013-05-08 10:05:00,
2013-05-08 03:10:00,54.7,49.3,30.10,NE,45,1.1,2.7,82,0.00,,,0.00,WUHU216HW,2013-05-08 10:10:00,
2013-05-08 03:15:00,54.4,49.0,30.10,ENE,68,0.4,2.7,82,0.00,,,0.00,WUHU216HW,2013-05-08 10:15:00,
2013-05-08 03:20:00,54.4,49.3,30.10,NE,45,0.4,1.3,83,0.00,,,0.00,WUHU216HW,2013-05-08 10:20:00,
2013-05-08 03:25:00,54.4,49.3,30.10,NE,45,2.0,2.0,83,0.00,,,0.00,WUHU216HW,2013-05-08 10:25:00,
2013-05-08 03:30:00,54.4,49.3,30.10,NNE,23,1.1,2.2,83,0.00,,,0.00,WUHU216HW,2013-05-08 10:30:00,
2013-05-08 03:35:00,54.2,49.2,30.10,NE,45,1.8,2.2,83,0.00,,,0.00,WUHU216HW,2013-05-08 10:35:00,
2013-05-08 03:40:00,54.2,49.4,30.10,NNE,23,1.1,2.2,84,0.00,,,0.00,WUHU216HW,2013-05-08 10:40:00,
2013-05-08 03:45:00,54.2,49.4,30.10,SE,135,0.4,1.8,84,0.00,,,0.00,WUHU216HW,2013-05-08 10:45:00,
2013-05-08 03:50:00,54.4,49.6,30.10,South,180,0.2,1.1,84,0.00,,,0.00,WUHU216HW,2013-05-08 10:50:00,
2013-05-08 03:55:00,54.5,49.8,30.10,SE,135,1.6,1.6,84,0.00,,,0.00,WUHU216HW,2013-05-08 10:55:00,
2013-05-08 04:00:00,54.5,49.8,30.10,NE,45,0.7,1.6,84,0.00,,,0.00,WUHU216HW,2013-05-08 11:00:00,
2013-05-08 04:05:00,54.5,49.8,30.10,NE,45,0.4,1.1,84,0.00,,,0.00,WUHU216HW,2013-05-08 11:05:00,
2013-05-08 04:10:00,54.5,49.8,30.10,NE,45,0.4,1.1,84,0.00,,,0.00,WUHU216HW,2013-05-08 11:10:00,
2013-05-08 04:15:00,54.4,49.6,30.10,ESE,113,0.7,1.3,84,0.00,,,0.00,WUHU216HW,2013-05-08 11:15:00,
2013-05-08 04:20:00,54.4,50.0,30.10,NE,45,0.4,2.0,85,0.00,,,0.00,WUHU216HW,2013-05-08 11:20:00,
2013-05-08 04:25:00,54.4,50.0,30.10,ENE,68,1.1,2.0,85,0.00,,,0.00,WUHU216HW,2013-05-08 11:25:00,
2013-05-08 04:30:00,54.4,50.0,30.10,North,0,0.2,1.8,85,0.00,,,0.00,WUHU216HW,2013-05-08 11:30:00,
2013-05-08 04:35:00,54.4,50.0,30.09,North,0,0.9,1.1,85,0.00,,,0.00,WUHU216HW,2013-05-08 11:35:00,
2013-05-08 04:40:00,54.4,50.0,30.09,NW,315,0.4,0.9,85,0.00,,,0.00,WUHU216HW,2013-05-08 11:40:00,
2013-05-08 04:45:00,54.4,50.0,30.09,NNE,23,0.4,1.6,85,0.00,,,0.00,WUHU216HW,2013-05-08 11:45:00,
2013-05-08 04:50:00,54.4,50.0,30.09,NE,45,0.9,1.6,85,0.00,,,0.00,WUHU216HW,2013-05-08 11:50:00,
2013-05-08 04:55:00,54.4,50.0,30.09,ENE,68,1.8,1.8,85,0.00,,,0.00,WUHU216HW,2013-05-08 11:55:00,
2013-05-08 05:00:00,54.4,50.0,30.09,NNE,23,2.2,2.7,85,0.00,,,0.00,WUHU216HW,2013-05-08 12:00:00,
2013-05-08 05:05:00,54.5,50.1,30.09,NE,45,2.9,3.6,85,0.00,,,0.00,WUHU216HW,2013-05-08 12:05:00,
2013-05-08 05:10:00,54.4,50.0,30.09,NE,45,2.9,3.6,85,0.00,,,0.00,WUHU216HW,2013-05-08 12:10:00,
2013-05-08 05:15:00,54.5,50.1,30.09,ENE,68,2.2,3.4,85,0.00,,,0.00,WUHU216HW,2013-05-08 12:15:00,
2013-05-08 05:20:00,54.4,50.0,30.09,NNE,23,1.6,3.1,85,0.00,,,0.00,WUHU216HW,2013-05-08 12:20:00,
2013-05-08 05:25:00,54.4,49.6,30.09,NE,45,3.6,3.6,84,0.00,,,0.00,WUHU216HW,2013-05-08 12:25:00,
2013-05-08 05:30:00,54.4,49.6,30.09,NNE,23,1.8,3.6,84,0.00,,,0.00,WUHU216HW,2013-05-08 12:30:00,
2013-05-08 05:35:00,54.4,49.6,30.09,NE,45,2.5,4.5,84,0.00,,,0.00,WUHU216HW,2013-05-08 12:35:00,
2013-05-08 05:40:00,54.2,49.4,30.09,NE,45,2.9,5.1,84,0.00,,,0.00,WUHU216HW,2013-05-08 12:40:00,
2013-05-08 05:45:00,54.0,49.2,30.09,NE,45,3.6,5.1,84,0.00,,,0.00,WUHU216HW,2013-05-08 12:45:00,
2013-05-08 05:50:00,54.0,49.2,30.10,NE,45,4.7,4.7,84,0.00,,,0.00,WUHU216HW,2013-05-08 12:50:00,
2013-05-08 05:55:00,54.0,49.2,30.10,NE,45,2.5,4.7,84,0.00,,,0.00,WUHU216HW,2013-05-08 12:55:00,
2013-05-08 06:00:00,54.0,49.2,30.10,NE,45,1.3,4.0,84,0.00,,,0.00,WUHU216HW,2013-05-08 13:00:00,
2013-05-08 06:05:00,54.2,49.4,30.10,NE,45,2.5,3.6,84,0.00,,,0.00,WUHU216HW,2013-05-08 13:05:00,
2013-05-08 06:10:00,54.4,49.6,30.10,NNE,23,0.4,2.5,84,0.00,,,0.00,WUHU216HW,2013-05-08 13:10:00,
2013-05-08 06:15:00,54.4,49.6,30.10,NE,45,2.9,2.9,84,0.00,,,0.00,WUHU216HW,2013-05-08 13:15:00,
2013-05-08 06:20:00,54.4,49.3,30.10,NE,45,3.6,3.6,83,0.00,,,0.00,WUHU216HW,2013-05-08 13:20:00,
2013-05-08 06:25:00,54.4,49.3,30.10,ENE,68,2.2,4.5,83,0.00,,,0.00,WUHU216HW,2013-05-08 13:25:00,
2013-05-08 06:30:00,54.4,49.3,30.10,NE,45,3.1,4.5,83,0.00,,,0.00,WUHU216HW,2013-05-08 13:30:00,
2013-05-08 06:35:00,54.4,49.3,30.10,NNE,23,0.9,3.8,83,0.00,,,0.00,WUHU216HW,2013-05-08 13:35:00,
2013-05-08 06:40:00,54.4,49.3,30.10,ENE,68,1.3,3.1,83,0.00,,,0.00,WUHU216HW,2013-05-08 13:40:00,
2013-05-08 06:45:00,54.4,49.3,30.10,ENE,68,1.1,1.3,83,0.00,,,0.00,WUHU216HW,2013-05-08 13:45:00,
2013-05-08 06:50:00,54.5,49.4,30.10,North,0,1.6,2.0,83,0.00,,,0.00,WUHU216HW,2013-05-08 13:50:00,
2013-05-08 06:55:00,54.4,49.3,30.10,NE,45,1.1,2.9,83,0.00,,,0.00,WUHU216HW,2013-05-08 13:55:00,
2013-05-08 07:00:00,54.5,49.4,30.10,ENE,68,2.0,2.9,83,0.00,,,0.00,WUHU216HW,2013-05-08 14:00:00,
2013-05-08 07:05:00,54.5,49.4,30.10,NE,45,3.1,3.1,83,0.00,,,0.00,WUHU216HW,2013-05-08 14:05:00,
2013-05-08 07:10:00,54.5,49.4,30.10,North,0,3.8,4.0,83,0.00,,,0.00,WUHU216HW,2013-05-08 14:10:00,
2013-05-08 07:15:00,54.5,49.4,30.10,ENE,68,1.8,4.0,83,0.00,,,0.00,WUHU216HW,2013-05-08 14:15:00,
2013-05-08 07:20:00,54.7,49.6,30.11,NE,45,2.5,4.0,83,0.00,,,0.00,WUHU216HW,2013-05-08 14:20:00,
2013-05-08 07:25:00,54.9,49.8,30.11,SW,225,0.4,3.6,83,0.00,,,0.00,WUHU216HW,2013-05-08 14:25:00,
2013-05-08 07:30:00,55.1,50.0,30.11,SW,225,0.7,2.5,83,0.00,,,0.00,WUHU216HW,2013-05-08 14:30:00,
2013-05-08 07:35:00,55.3,50.1,30.12,SSW,203,0.0,1.3,83,0.00,,,0.00,WUHU216HW,2013-05-08 14:35:00,
2013-05-08 07:40:00,55.6,50.5,30.12,SE,135,0.0,1.3,83,0.00,,,0.00,WUHU216HW,2013-05-08 14:40:00,
2013-05-08 07:45:00,55.8,50.7,30.12,SW,225,1.3,1.8,83,0.00,,,0.00,WUHU216HW,2013-05-08 14:45:00,
2013-05-08 07:50:00,55.8,50.3,30.12,West,270,0.4,1.8,82,0.00,,,0.00,WUHU216HW,2013-05-08 14:50:00,
2013-05-08 07:55:00,55.8,50.3,30.12,WSW,248,0.4,1.3,82,0.00,,,0.00,WUHU216HW,2013-05-08 14:55:00,
2013-05-08 08:00:00,56.0,50.9,30.12,SE,135,0.7,0.9,83,0.00,,,0.00,WUHU216HW,2013-05-08 15:00:00,
2013-05-08 08:05:00,56.2,51.0,30.12,ESE,113,0.0,0.9,83,0.00,,,0.00,WUHU216HW,2013-05-08 15:05:00,
2013-05-08 08:10:00,56.3,50.9,30.13,SE,135,1.3,1.3,82,0.00,,,0.00,WUHU216HW,2013-05-08 15:10:00,
2013-05-08 08:15:00,56.3,50.9,30.12,SE,135,1.1,1.3,82,0.00,,,0.00,WUHU216HW,2013-05-08 15:15:00,
2013-05-08 08:20:00,56.2,50.7,30.12,ENE,68,0.9,1.1,82,0.00,,,0.00,WUHU216HW,2013-05-08 15:20:00,
2013-05-08 08:25:00,56.2,50.7,30.13,North,0,0.2,0.9,82,0.00,,,0.00,WUHU216HW,2013-05-08 15:25:00,
2013-05-08 08:30:00,56.2,50.7,30.13,ESE,113,0.4,1.3,82,0.00,,,0.00,WUHU216HW,2013-05-08 15:30:00,
2013-05-08 08:35:00,56.3,50.9,30.13,South,180,0.0,1.3,82,0.00,,,0.00,WUHU216HW,2013-05-08 15:35:00,
2013-05-08 08:40:00,56.5,51.4,30.13,SSW,203,0.4,1.6,83,0.00,,,0.00,WUHU216HW,2013-05-08 15:40:00,
2013-05-08 08:45:00,56.7,51.6,30.13,SW,225,0.9,1.6,83,0.00,,,0.00,WUHU216HW,2013-05-08 15:45:00,
2013-05-08 08:50:00,56.9,51.8,30.13,SSW,203,0.9,1.8,83,0.00,,,0.00,WUHU216HW,2013-05-08 15:50:00,
2013-05-08 08:55:00,57.2,52.1,30.13,WSW,248,1.8,1.8,83,0.00,,,0.00,WUHU216HW,2013-05-08 15:55:00,
2013-05-08 09:00:00,57.6,52.1,30.13,WSW,248,3.1,3.1,82,0.00,,,0.00,WUHU216HW,2013-05-08 16:00:00,
2013-05-08 09:05:00,57.4,51.9,30.13,SSW,203,1.8,3.1,82,0.00,,,0.00,WUHU216HW,2013-05-08 16:05:00,
2013-05-08 09:10:00,57.6,51.9,30.13,West,270,1.6,2.2,81,0.00,,,0.00,WUHU216HW,2013-05-08 16:10:00,
2013-05-08 09:15:00,57.6,51.9,30.13,SSW,203,0.9,2.9,81,0.00,,,0.00,WUHU216HW,2013-05-08 16:15:00,
2013-05-08 09:20:00,57.8,52.0,30.13,SSW,203,2.2,2.9,81,0.00,,,0.00,WUHU216HW,2013-05-08 16:20:00,
2013-05-08 09:25:00,58.0,52.2,30.13,SSW,203,0.9,2.9,81,0.00,,,0.00,WUHU216HW,2013-05-08 16:25:00,
2013-05-08 09:30:00,58.5,52.8,30.13,South,180,2.5,4.3,81,0.00,,,0.00,WUHU216HW,2013-05-08 16:30:00,
2013-05-08 09:35:00,58.7,52.6,30.13,SW,225,2.5,4.3,80,0.00,,,0.00,WUHU216HW,2013-05-08 16:35:00,
2013-05-08 09:40:00,59.0,52.9,30.13,SW,225,2.0,2.9,80,0.00,,,0.00,WUHU216HW,2013-05-08 16:40:00,
2013-05-08 09:45:00,59.6,53.5,30.13,South,180,3.8,4.9,80,0.00,,,0.00,WUHU216HW,2013-05-08 16:45:00,
2013-05-08 09:50:00,60.1,54.0,30.13,South,180,4.7,4.9,80,0.00,,,0.00,WUHU216HW,2013-05-08 16:50:00,
2013-05-08 09:55:00,60.5,54.0,30.13,WSW,248,3.4,5.8,79,0.00,,,0.00,WUHU216HW,2013-05-08 16:55:00,
2013-05-08 10:00:00,60.7,54.2,30.13,SSW,203,3.4,5.8,79,0.00,,,0.00,WUHU216HW,2013-05-08 17:00:00,
2013-05-08 10:05:00,60.7,53.5,30.13,SW,225,2.7,5.4,77,0.00,,,0.00,WUHU216HW,2013-05-08 17:05:00,
2013-05-08 10:10:00,60.8,53.6,30.13,SSW,203,4.3,5.4,77,0.00,,,0.00,WUHU216HW,2013-05-08 17:10:00,
2013-05-08 10:15:00,61.2,54.0,30.13,South,180,4.0,5.4,77,0.00,,,0.00,WUHU216HW,2013-05-08 17:15:00,
2013-05-08 10:20:00,61.7,54.1,30.14,SW,225,6.5,6.5,76,0.00,,,0.00,WUHU216HW,2013-05-08 17:20:00,
2013-05-08 10:25:00,62.3,54.5,30.13,WSW,248,4.0,6.5,76,0.00,,,0.00,WUHU216HW,2013-05-08 17:25:00,
2013-05-08 10:30:00,62.8,55.1,30.13,South,180,2.2,5.8,76,0.00,,,0.00,WUHU216HW,2013-05-08 17:30:00,
2013-05-08 10:35:00,63.4,55.3,30.13,SSE,158,1.8,5.8,75,0.00,,,0.00,WUHU216HW,2013-05-08 17:35:00,
2013-05-08 10:40:00,63.7,55.3,30.13,SE,135,2.0,5.6,74,0.00,,,0.00,WUHU216HW,2013-05-08 17:40:00,
2013-05-08 10:45:00,63.7,54.9,30.12,SSW,203,2.5,5.6,73,0.00,,,0.00,WUHU216HW,2013-05-08 17:45:00,
2013-05-08 10:50:00,64.3,55.4,30.13,SSE,158,2.7,5.6,73,0.00,,,0.00,WUHU216HW,2013-05-08 17:50:00,
2013-05-08 10:55:00,64.4,54.9,30.12,WSW,248,3.4,4.7,71,0.00,,,0.00,WUHU216HW,2013-05-08 17:55:00,
2013-05-08 11:00:00,64.1,54.2,30.12,SW,225,2.5,4.3,70,0.00,,,0.00,WUHU216HW,2013-05-08 18:00:00,
2013-05-08 11:05:00,63.2,53.3,30.12,SSW,203,1.3,3.4,70,0.00,,,0.00,WUHU216HW,2013-05-08 18:05:00,
2013-05-08 11:10:00,63.0,53.1,30.12,SW,225,4.7,4.7,70,0.00,,,0.00,WUHU216HW,2013-05-08 18:10:00,
2013-05-08 11:15:00,62.1,52.3,30.12,WSW,248,4.0,5.4,70,0.00,,,0.00,WUHU216HW,2013-05-08 18:15:00,
2013-05-08 11:20:00,61.7,51.5,30.12,WSW,248,2.0,5.4,69,0.00,,,0.00,WUHU216HW,2013-05-08 18:20:00,
2013-05-08 11:25:00,62.1,52.7,30.12,SW,225,2.7,3.8,71,0.00,,,0.00,WUHU216HW,2013-05-08 18:25:00,
2013-05-08 11:30:00,62.5,52.2,30.12,WSW,248,2.9,6.3,69,0.00,,,0.00,WUHU216HW,2013-05-08 18:30:00,
2013-05-08 11:35:00,62.5,52.6,30.12,WSW,248,3.1,6.3,70,0.00,,,0.00,WUHU216HW,2013-05-08 18:35:00,
2013-05-08 11:40:00,62.3,52.4,30.12,West,270,2.5,4.7,70,0.00,,,0.00,WUHU216HW,2013-05-08 18:40:00,
2013-05-08 11:45:00,62.1,51.4,30.12,WSW,248,3.6,4.9,68,0.00,,,0.00,WUHU216HW,2013-05-08 18:45:00,
2013-05-08 11:50:00,62.3,52.0,30.12,WSW,248,2.9,4.9,69,0.00,,,0.00,WUHU216HW,2013-05-08 18:50:00,
2013-05-08 11:55:00,63.5,53.2,30.11,West,270,4.3,5.4,69,0.00,,,0.00,WUHU216HW,2013-05-08 18:55:00,
2013-05-08 12:00:00,64.1,52.9,30.11,SW,225,1.1,5.4,67,0.00,,,0.00,WUHU216HW,2013-05-08 19:00:00,
2013-05-08 12:05:00,64.4,53.3,30.11,SW,225,6.3,6.9,67,0.00,,,0.00,WUHU216HW,2013-05-08 19:05:00,
2013-05-08 12:10:00,64.6,53.0,30.11,WSW,248,6.3,6.9,66,0.00,,,0.00,WUHU216HW,2013-05-08 19:10:00,
2013-05-08 12:15:00,64.4,52.4,30.11,SW,225,1.8,6.3,65,0.00,,,0.00,WUHU216HW,2013-05-08 19:15:00,
2013-05-08 12:20:00,64.4,52.4,30.11,WSW,248,4.7,7.2,65,0.00,,,0.00,WUHU216HW,2013-05-08 19:20:00,
2013-05-08 12:24:00,64.8,52.8,30.11,SW,225,8.7,8.7,65,0.00,,,0.00,WUHU216HW,2013-05-08 19:24:00,
2013-05-08 12:29:00,65.0,52.5,30.11,SW,225,3.4,8.7,64,0.00,,,0.00,WUHU216HW,2013-05-08 19:29:00,
2013-05-08 12:34:00,65.7,53.2,30.10,WSW,248,7.4,10.3,64,0.00,,,0.00,WUHU216HW,2013-05-08 19:34:00,
2013-05-08 12:39:00,65.3,52.4,30.10,WSW,248,6.3,10.3,63,0.00,,,0.00,WUHU216HW,2013-05-08 19:39:00,
2013-05-08 12:44:00,65.7,52.8,30.11,SW,225,4.0,7.4,63,0.00,,,0.00,WUHU216HW,2013-05-08 19:44:00,
2013-05-08 12:49:00,65.2,52.2,30.10,WSW,248,2.2,5.6,63,0.00,,,0.00,WUHU216HW,2013-05-08 19:49:00,
2013-05-08 12:54:00,65.0,52.5,30.11,WSW,248,6.3,6.5,64,0.00,,,0.00,WUHU216HW,2013-05-08 19:54:00,
2013-05-08 12:59:00,64.8,52.3,30.10,SW,225,8.5,8.5,64,0.00,,,0.00,WUHU216HW,2013-05-08 19:59:00,
2013-05-08 13:04:00,64.8,52.3,30.10,WSW,248,6.0,8.5,64,0.00,,,0.00,WUHU216HW,2013-05-08 20:04:00,
2013-05-08 13:09:00,64.8,52.8,30.10,SSW,203,5.4,6.9,65,0.00,,,0.00,WUHU216HW,2013-05-08 20:09:00,
2013-05-08 13:14:00,65.0,52.5,30.10,SSW,203,6.7,8.1,64,0.00,,,0.00,WUHU216HW,2013-05-08 20:14:00,
2013-05-08 13:19:00,64.8,51.8,30.11,WSW,248,5.8,8.1,63,0.00,,,0.00,WUHU216HW,2013-05-08 20:19:00,
2013-05-08 13:24:00,64.8,52.3,30.10,West,270,4.9,6.7,64,0.00,,,0.00,WUHU216HW,2013-05-08 20:24:00,
2013-05-08 13:29:00,65.2,52.7,30.10,WSW,248,9.4,9.4,64,0.00,,,0.00,WUHU216HW,2013-05-08 20:29:00,
2013-05-08 13:34:00,65.9,52.5,30.10,WSW,248,10.5,13.0,62,0.00,,,0.00,WUHU216HW,2013-05-08 20:34:00,
2013-05-08 13:39:00,65.3,51.9,30.10,SW,225,8.5,13.0,62,0.00,,,0.00,WUHU216HW,2013-05-08 20:39:00,
2013-05-08 13:44:00,65.2,52.2,30.10,WSW,248,8.7,10.5,63,0.00,,,0.00,WUHU216HW,2013-05-08 20:44:00,
2013-05-08 13:49:00,65.2,52.2,30.10,WSW,248,7.4,9.2,63,0.00,,,0.00,WUHU216HW,2013-05-08 20:49:00,
2013-05-08 13:54:00,64.6,51.7,30.10,WSW,248,7.4,8.9,63,0.00,,,0.00,WUHU216HW,2013-05-08 20:54:00,
2013-05-08 13:59:00,64.6,52.1,30.11,SW,225,11.4,11.4,64,0.00,,,0.00,WUHU216HW,2013-05-08 20:59:00,
2013-05-08 14:04:00,65.2,52.7,30.10,WSW,248,8.7,11.4,64,0.00,,,0.00,WUHU216HW,2013-05-08 21:04:00,
2013-05-08 14:09:00,65.9,52.1,30.10,WSW,248,11.0,11.0,61,0.00,,,0.00,WUHU216HW,2013-05-08 21:09:00,
2013-05-08 14:14:00,65.5,51.8,30.10,SW,225,10.5,11.0,61,0.00,,,0.00,WUHU216HW,2013-05-08 21:14:00,
2013-05-08 14:19:00,65.5,51.8,30.10,WSW,248,12.3,12.3,61,0.00,,,0.00,WUHU216HW,2013-05-08 21:19:00,
2013-05-08 14:24:00,65.3,51.6,30.10,SW,225,10.5,12.3,61,0.00,,,0.00,WUHU216HW,2013-05-08 21:24:00,
2013-05-08 14:29:00,65.2,50.9,30.10,WSW,248,8.5,13.0,60,0.00,,,0.00,WUHU216HW,2013-05-08 21:29:00,
2013-05-08 14:34:00,65.7,51.5,30.10,SW,225,14.8,14.8,60,0.00,,,0.00,WUHU216HW,2013-05-08 21:34:00,
2013-05-08 14:39:00,65.9,51.2,30.10,WSW,248,10.5,14.8,59,0.00,,,0.00,WUHU216HW,2013-05-08 21:39:00,
2013-05-08 14:44:00,66.2,50.6,30.10,SSW,203,9.8,12.3,57,0.00,,,0.00,WUHU216HW,2013-05-08 21:44:00,
2013-05-08 14:49:00,66.8,51.6,30.10,SW,225,11.2,12.3,58,0.00,,,0.00,WUHU216HW,2013-05-08 21:49:00,
2013-05-08 14:54:00,67.0,50.8,30.09,WSW,248,8.3,11.4,56,0.00,,,0.00,WUHU216HW,2013-05-08 21:54:00,
2013-05-08 14:59:00,67.1,50.0,30.09,SW,225,8.7,11.4,54,0.00,,,0.00,WUHU216HW,2013-05-08 21:59:00,
2013-05-08 15:04:00,67.0,49.8,30.09,SSW,203,8.5,11.2,54,0.00,,,0.00,WUHU216HW,2013-05-08 22:04:00,
2013-05-08 15:09:00,67.3,49.6,30.09,WSW,248,10.3,10.3,53,0.00,,,0.00,WUHU216HW,2013-05-08 22:09:00,
2013-05-08 15:14:00,66.6,49.4,30.09,WSW,248,6.3,10.5,54,0.00,,,0.00,WUHU216HW,2013-05-08 22:14:00,
2013-05-08 15:19:00,66.2,49.6,30.09,WSW,248,9.8,10.5,55,0.00,,,0.00,WUHU216HW,2013-05-08 22:19:00,
2013-05-08 15:24:00,65.9,49.2,30.09,West,270,9.8,10.5,55,0.00,,,0.00,WUHU216HW,2013-05-08 22:24:00,
2013-05-08 15:29:00,65.7,49.5,30.09,WSW,248,8.1,10.5,56,0.00,,,0.00,WUHU216HW,2013-05-08 22:29:00,
2013-05-08 15:34:00,65.2,49.5,30.09,West,270,5.4,10.5,57,0.00,,,0.00,WUHU216HW,2013-05-08 22:34:00,
2013-05-08 15:39:00,65.3,49.7,30.09,West,270,5.1,7.6,57,0.00,,,0.00,WUHU216HW,2013-05-08 22:39:00,
2013-05-08 15:44:00,65.0,49.3,30.09,WSW,248,5.6,11.2,57,0.00,,,0.00,WUHU216HW,2013-05-08 22:44:00,
2013-05-08 15:49:00,65.0,49.8,30.09,SSW,203,7.8,11.2,58,0.00,,,0.00,WUHU216HW,2013-05-08 22:49:00,
2013-05-08 15:54:00,64.4,49.2,30.09,WSW,248,6.5,11.9,58,0.00,,,0.00,WUHU216HW,2013-05-08 22:54:00,
2013-05-08 15:59:00,64.1,49.4,30.09,West,270,12.8,13.4,59,0.00,,,0.00,WUHU216HW,2013-05-08 22:59:00,
2013-05-08 16:04:00,63.7,50.1,30.09,WSW,248,6.3,13.4,61,0.00,,,0.00,WUHU216HW,2013-05-08 23:04:00,
2013-05-08 16:09:00,63.7,49.6,30.09,WSW,248,9.4,9.4,60,0.00,,,0.00,WUHU216HW,2013-05-08 23:09:00,
2013-05-08 16:14:00,63.7,49.1,30.09,WSW,248,10.3,10.3,59,0.00,,,0.00,WUHU216HW,2013-05-08 23:14:00,
2013-05-08 16:19:00,63.9,49.2,30.09,WSW,248,9.2,10.3,59,0.00,,,0.00,WUHU216HW,2013-05-08 23:19:00,
2013-05-08 16:24:00,63.4,48.8,30.09,SW,225,9.8,9.8,59,0.00,,,0.00,WUHU216HW,2013-05-08 23:24:00,
2013-05-08 16:29:00,63.0,49.0,30.09,West,270,7.6,9.8,60,0.00,,,0.00,WUHU216HW,2013-05-08 23:29:00,
2013-05-08 16:34:00,63.0,49.0,30.10,WSW,248,8.5,8.7,60,0.00,,,0.00,WUHU216HW,2013-05-08 23:34:00,
2013-05-08 16:39:00,63.4,49.2,30.09,West,270,9.2,9.2,60,0.00,,,0.00,WUHU216HW,2013-05-08 23:39:00,
2013-05-08 16:44:00,63.4,48.8,30.09,WSW,248,6.3,10.5,59,0.00,,,0.00,WUHU216HW,2013-05-08 23:44:00,
2013-05-08 16:49:00,63.4,48.2,30.10,WSW,248,6.3,10.5,58,0.00,,,0.00,WUHU216HW,2013-05-08 23:49:00,
2013-05-08 16:54:00,63.4,48.2,30.09,NW,315,8.7,8.7,58,0.00,,,0.00,WUHU216HW,2013-05-08 23:54:00,
2013-05-08 16:59:00,63.2,48.2,30.10,West,270,8.5,8.7,58,0.00,,,0.00,WUHU216HW,2013-05-08 23:59:00,
2013-05-08 17:04:00,62.8,48.2,30.10,West,270,7.2,8.7,59,0.00,,,0.00,WUHU216HW,2013-05-09 00:04:00,
2013-05-08 17:09:00,62.6,48.6,30.10,West,270,5.6,8.7,60,0.00,,,0.00,WUHU216HW,2013-05-09 00:09:00,
2013-05-08 17:14:00,62.6,48.2,30.10,WSW,248,5.8,8.5,59,0.00,,,0.00,WUHU216HW,2013-05-09 00:14:00,
2013-05-08 17:19:00,62.6,48.6,30.10,WNW,293,4.3,8.5,60,0.00,,,0.00,WUHU216HW,2013-05-09 00:19:00,
2013-05-08 17:24:00,62.8,48.2,30.10,WSW,248,8.5,8.5,59,0.00,,,0.00,WUHU216HW,2013-05-09 00:24:00,
2013-05-08 17:29:00,62.8,47.8,30.10,NNW,338,2.0,8.5,58,0.00,,,0.00,WUHU216HW,2013-05-09 00:29:00,
2013-05-08 17:34:00,62.6,47.6,30.10,West,270,2.2,5.4,58,0.00,,,0.00,WUHU216HW,2013-05-09 00:34:00,
2013-05-08 17:39:00,62.3,47.4,30.10,West,270,6.5,8.1,58,0.00,,,0.00,WUHU216HW,2013-05-09 00:39:00,
2013-05-08 17:44:00,62.3,47.8,30.10,SSW,203,4.5,8.1,59,0.00,,,0.00,WUHU216HW,2013-05-09 00:44:00,
2013-05-08 17:49:00,62.3,47.8,30.10,NNW,338,4.0,5.6,59,0.00,,,0.00,WUHU216HW,2013-05-09 00:49:00,
2013-05-08 17:54:00,62.3,48.2,30.10,WNW,293,3.6,5.4,60,0.00,,,0.00,WUHU216HW,2013-05-09 00:54:00,
2013-05-08 17:59:00,62.1,47.6,30.10,NW,315,2.9,4.7,59,0.00,,,0.00,WUHU216HW,2013-05-09 00:59:00,
2013-05-08 18:04:00,61.9,47.4,30.10,SW,225,4.7,5.8,59,0.00,,,0.00,WUHU216HW,2013-05-09 01:04:00,
2013-05-08 18:09:00,61.6,47.2,30.10,West,270,6.3,6.3,59,0.00,,,0.00,WUHU216HW,2013-05-09 01:09:00,
2013-05-08 18:14:00,61.4,47.0,30.10,WSW,248,3.1,8.3,59,0.00,,,0.00,WUHU216HW,2013-05-09 01:14:00,
2013-05-08 18:19:00,61.4,47.4,30.09,SW,225,4.5,8.3,60,0.00,,,0.00,WUHU216HW,2013-05-09 01:19:00,
2013-05-08 18:24:00,61.4,47.4,30.10,WSW,248,3.8,7.2,60,0.00,,,0.00,WUHU216HW,2013-05-09 01:24:00,
2013-05-08 18:29:00,61.4,47.4,30.10,WNW,293,1.3,5.4,60,0.00,,,0.00,WUHU216HW,2013-05-09 01:29:00,
2013-05-08 18:34:00,61.4,47.4,30.10,WNW,293,1.3,5.4,60,0.00,,,0.00,WUHU216HW,2013-05-09 01:34:00,
2013-05-08 18:56:00,60.7,46.8,30.10,SSW,203,2.5,2.5,60,0.00,,,0.00,WUHU216HW,2013-05-09 01:56:00,
2013-05-08 19:01:00,60.5,47.1,30.10,West,270,4.5,5.1,61,0.00,,,0.00,WUHU216HW,2013-05-09 02:01:00,
2013-05-08 19:06:00,60.1,47.1,30.10,WNW,293,3.6,5.1,62,0.00,,,0.00,WUHU216HW,2013-05-09 02:06:00,
2013-05-08 19:11:00,60.1,47.1,30.10,West,270,3.4,5.1,62,0.00,,,0.00,WUHU216HW,2013-05-09 02:11:00,
2013-05-08 19:16:00,59.9,46.9,30.10,WSW,248,2.2,4.7,62,0.00,,,0.00,WUHU216HW,2013-05-09 02:16:00,
2013-05-08 19:21:00,59.9,47.4,30.10,West,270,3.4,4.5,63,0.00,,,0.00,WUHU216HW,2013-05-09 02:21:00,
2013-05-08 19:26:00,59.9,47.4,30.10,WSW,248,3.8,4.5,63,0.00,,,0.00,WUHU216HW,2013-05-09 02:26:00,
2013-05-08 19:31:00,59.9,47.7,30.10,West,270,1.3,3.8,64,0.00,,,0.00,WUHU216HW,2013-05-09 02:31:00,
2013-05-08 19:36:00,59.8,47.5,30.10,North,0,0.4,2.9,64,0.00,,,0.00,WUHU216HW,2013-05-09 02:36:00,
2013-05-08 19:41:00,59.8,47.5,30.10,NNW,338,0.9,1.8,64,0.00,,,0.00,WUHU216HW,2013-05-09 02:41:00,
2013-05-08 19:46:00,59.8,47.5,30.10,West,270,2.2,2.9,64,0.00,,,0.00,WUHU216HW,2013-05-09 02:46:00,
2013-05-08 19:51:00,59.6,47.3,30.10,NW,315,1.1,2.9,64,0.00,,,0.00,WUHU216HW,2013-05-09 02:51:00,
2013-05-08 19:56:00,59.4,47.2,30.10,WNW,293,2.7,2.9,64,0.00,,,0.00,WUHU216HW,2013-05-09 02:56:00,
2013-05-08 20:01:00,59.4,47.2,30.10,West,270,1.6,2.7,64,0.00,,,0.00,WUHU216HW,2013-05-09 03:01:00,
2013-05-08 20:06:00,59.4,47.6,30.10,WSW,248,1.3,2.9,65,0.00,,,0.00,WUHU216HW,2013-05-09 03:06:00,
2013-05-08 20:11:00,59.0,47.3,30.11,NW,315,0.9,2.9,65,0.00,,,0.00,WUHU216HW,2013-05-09 03:11:00,
2013-05-08 20:16:00,59.0,47.7,30.11,SW,225,1.1,2.7,66,0.00,,,0.00,WUHU216HW,2013-05-09 03:16:00,
2013-05-08 20:21:00,58.9,47.5,30.10,West,270,2.7,4.0,66,0.00,,,0.00,WUHU216HW,2013-05-09 03:21:00,
2013-05-08 20:26:00,58.9,47.5,30.11,West,270,0.4,4.0,66,0.00,,,0.00,WUHU216HW,2013-05-09 03:26:00,
2013-05-08 20:31:00,58.7,47.4,30.11,WNW,293,2.0,2.5,66,0.00,,,0.00,WUHU216HW,2013-05-09 03:31:00,
2013-05-08 20:36:00,58.7,47.4,30.11,West,270,1.1,2.5,66,0.00,,,0.00,WUHU216HW,2013-05-09 03:36:00,
2013-05-08 20:41:00,58.3,47.0,30.11,West,270,2.2,3.8,66,0.00,,,0.00,WUHU216HW,2013-05-09 03:41:00,
2013-05-08 20:46:00,58.1,47.3,30.11,WSW,248,1.1,3.8,67,0.00,,,0.00,WUHU216HW,2013-05-09 03:46:00,
2013-05-08 20:51:00,58.0,47.1,30.11,West,270,2.5,2.9,67,0.00,,,0.00,WUHU216HW,2013-05-09 03:51:00,
2013-05-08 20:56:00,58.0,47.1,30.11,WNW,293,2.2,2.5,67,0.00,,,0.00,WUHU216HW,2013-05-09 03:56:00,
2013-05-08 21:01:00,58.0,47.4,30.11,West,270,2.9,2.9,68,0.00,,,0.00,WUHU216HW,2013-05-09 04:01:00,
2013-05-08 21:06:00,58.0,47.9,30.12,WSW,248,1.8,2.9,69,0.00,,,0.00,WUHU216HW,2013-05-09 04:06:00,
2013-05-08 21:11:00,58.0,47.9,30.12,West,270,2.7,2.7,69,0.00,,,0.00,WUHU216HW,2013-05-09 04:11:00,
2013-05-08 21:16:00,57.8,47.7,30.12,West,270,2.5,4.5,69,0.00,,,0.00,WUHU216HW,2013-05-09 04:16:00,
2013-05-08 21:21:00,57.8,47.7,30.12,West,270,2.5,4.5,69,0.00,,,0.00,WUHU216HW,2013-05-09 04:21:00,
2013-05-08 21:26:00,57.8,47.7,30.12,West,270,2.2,3.8,69,0.00,,,0.00,WUHU216HW,2013-05-09 04:26:00,
2013-05-08 21:31:00,57.8,48.1,30.12,WSW,248,2.5,3.8,70,0.00,,,0.00,WUHU216HW,2013-05-09 04:31:00,
2013-05-08 21:36:00,57.8,48.1,30.12,SW,225,2.5,2.9,70,0.00,,,0.00,WUHU216HW,2013-05-09 04:36:00,
2013-05-08 21:41:00,57.6,48.2,30.12,WSW,248,1.3,2.7,71,0.00,,,0.00,WUHU216HW,2013-05-09 04:41:00,
2013-05-08 21:46:00,57.6,48.2,30.13,West,270,1.6,3.1,71,0.00,,,0.00,WUHU216HW,2013-05-09 04:46:00,
2013-05-08 21:51:00,57.6,48.6,30.13,SW,225,1.8,3.1,72,0.00,,,0.00,WUHU216HW,2013-05-09 04:51:00,
2013-05-08 21:56:00,57.6,49.0,30.13,West,270,2.5,3.1,73,0.00,,,0.00,WUHU216HW,2013-05-09 04:56:00,
2013-05-08 22:01:00,57.4,48.8,30.13,West,270,2.5,3.4,73,0.00,,,0.00,WUHU216HW,2013-05-09 05:01:00,
2013-05-08 22:06:00,57.4,49.1,30.13,West,270,2.0,3.4,74,0.00,,,0.00,WUHU216HW,2013-05-09 05:06:00,
2013-05-08 22:11:00,57.4,49.5,30.13,WSW,248,2.7,2.7,75,0.00,,,0.00,WUHU216HW,2013-05-09 05:11:00,
2013-05-08 22:16:00,57.2,49.7,30.13,WSW,248,1.1,3.1,76,0.00,,,0.00,WUHU216HW,2013-05-09 05:16:00,
2013-05-08 22:21:00,57.2,49.7,30.13,WSW,248,1.8,3.1,76,0.00,,,0.00,WUHU216HW,2013-05-09 05:21:00,
2013-05-08 22:26:00,57.2,50.0,30.13,WSW,248,0.9,2.5,77,0.00,,,0.00,WUHU216HW,2013-05-09 05:26:00,
2013-05-08 22:31:00,57.2,50.0,30.13,WSW,248,0.9,2.5,77,0.00,,,0.00,WUHU216HW,2013-05-09 05:31:00,
2013-05-08 22:36:00,57.2,50.0,30.13,WSW,248,1.6,2.0,77,0.00,,,0.00,WUHU216HW,2013-05-09 05:36:00,
2013-05-08 22:41:00,57.2,50.0,30.13,WSW,248,2.5,2.5,77,0.00,,,0.00,WUHU216HW,2013-05-09 05:41:00,
2013-05-08 22:46:00,57.2,50.4,30.13,West,270,3.4,3.4,78,0.00,,,0.00,WUHU216HW,2013-05-09 05:46:00,
2013-05-08 22:51:00,57.1,50.2,30.13,West,270,1.3,3.4,78,0.00,,,0.00,WUHU216HW,2013-05-09 05:51:00,
2013-05-08 22:56:00,57.2,50.4,30.13,WSW,248,1.3,1.8,78,0.00,,,0.00,WUHU216HW,2013-05-09 05:56:00,
2013-05-08 23:01:00,57.2,50.8,30.13,West,270,0.9,1.3,79,0.00,,,0.00,WUHU216HW,2013-05-09 06:01:00,
2013-05-08 23:06:00,57.2,50.8,30.13,WSW,248,0.4,1.1,79,0.00,,,0.00,WUHU216HW,2013-05-09 06:06:00,
2013-05-08 23:11:00,57.2,50.8,30.13,WNW,293,0.4,1.1,79,0.00,,,0.00,WUHU216HW,2013-05-09 06:11:00,
2013-05-08 23:16:00,57.2,50.8,30.13,WSW,248,1.1,2.0,79,0.00,,,0.00,WUHU216HW,2013-05-09 06:16:00,
2013-05-08 23:21:00,57.2,50.8,30.13,WSW,248,1.1,2.0,79,0.00,,,0.00,WUHU216HW,2013-05-09 06:21:00,
2013-05-08 23:26:00,57.1,50.6,30.13,West,270,1.6,2.0,79,0.00,,,0.00,WUHU216HW,2013-05-09 06:26:00,
2013-05-08 23:31:00,57.1,50.6,30.13,WSW,248,0.2,2.0,79,0.00,,,0.00,WUHU216HW,2013-05-09 06:31:00,
2013-05-08 23:36:00,57.1,50.9,30.13,WNW,293,0.2,2.0,80,0.00,,,0.00,WUHU216HW,2013-05-09 06:36:00,
2013-05-08 23:41:00,57.1,50.9,30.12,West,270,0.0,0.4,80,0.00,,,0.00,WUHU216HW,2013-05-09 06:41:00,
2013-05-08 23:46:00,57.1,50.9,30.13,WNW,293,0.2,0.4,80,0.00,,,0.00,WUHU216HW,2013-05-09 06:46:00,
2013-05-08 23:51:00,57.1,50.9,30.13,West,270,0.0,0.4,80,0.00,,,0.00,WUHU216HW,2013-05-09 06:51:00,
2013-05-08 23:56:00,57.1,50.9,30.13,WNW,293,0.0,0.4,80,0.00,,,0.00,WUHU216HW,2013-05-09 06:56:00,